sensor_id;sensor_type;location;lat;lon;timestamp;temperature;humidity
25112;DHT22;13092;51.996;4.458;2023-03-07T00:01:27;7.10;99.90
25112;DHT22;13092;51.996;4.458;2023-03-07T00:03:56;7.10;99.90
25112;DHT22;13092;51.996;4.458;2023-03-07T00:06:25;7.10;99.90
25112;DHT22;13092;51.996;4.458;2023-03-07T00:08:55;7.10;99.90
25112;DHT22;13092;51.996;4.458;2023-03-07T00:11:28;7.10;99.90
25112;DHT22;13092;51.996;4.458;2023-03-07T00:13:56;7.10;99.90
25112;DHT22;13092;51.996;4.458;2023-03-07T00:16:26;7.10;99.90
25112;DHT22;13092;51.996;4.458;2023-03-07T00:18:54;7.10;99.90
25112;DHT22;13092;51.996;4.458;2023-03-07T00:21:23;7.20;99.90
25112;DHT22;13092;51.996;4.458;2023-03-07T00:23:56;7.10;99.90
25112;DHT22;13092;51.996;4.458;2023-03-07T00:26:25;7.10;99.90
25112;DHT22;13092;51.996;4.458;2023-03-07T00:28:54;7.20;99.90
25112;DHT22;13092;51.996;4.458;2023-03-07T00:31:22;7.00;99.90
25112;DHT22;13092;51.996;4.458;2023-03-07T00:33:53;7.00;99.90
25112;DHT22;13092;51.996;4.458;2023-03-07T00:36:22;7.00;99.90
25112;DHT22;13092;51.996;4.458;2023-03-07T00:38:51;7.10;99.90
25112;DHT22;13092;51.996;4.458;2023-03-07T00:41:21;7.00;99.90
25112;DHT22;13092;51.996;4.458;2023-03-07T00:43:50;7.00;99.90
25112;DHT22;13092;51.996;4.458;2023-03-07T00:46:20;7.00;99.90
25112;DHT22;13092;51.996;4.458;2023-03-07T00:48:48;7.00;99.90
25112;DHT22;13092;51.996;4.458;2023-03-07T00:51:22;6.90;99.90
25112;DHT22;13092;51.996;4.458;2023-03-07T00:53:52;7.00;99.90
25112;DHT22;13092;51.996;4.458;2023-03-07T00:56:23;7.00;99.90
25112;DHT22;13092;51.996;4.458;2023-03-07T00:58:52;7.00;99.90
25112;DHT22;13092;51.996;4.458;2023-03-07T01:01:22;7.10;99.90
25112;DHT22;13092;51.996;4.458;2023-03-07T01:03:51;7.00;99.90
25112;DHT22;13092;51.996;4.458;2023-03-07T01:06:24;7.00;99.90
25112;DHT22;13092;51.996;4.458;2023-03-07T01:08:54;7.00;99.90
25112;DHT22;13092;51.996;4.458;2023-03-07T01:11:23;7.00;99.90
25112;DHT22;13092;51.996;4.458;2023-03-07T01:13:53;7.00;99.90
25112;DHT22;13092;51.996;4.458;2023-03-07T01:16:23;7.00;99.90
25112;DHT22;13092;51.996;4.458;2023-03-07T01:18:54;6.90;99.90
25112;DHT22;13092;51.996;4.458;2023-03-07T01:21:25;6.90;99.90
25112;DHT22;13092;51.996;4.458;2023-03-07T01:23:54;6.90;99.90
25112;DHT22;13092;51.996;4.458;2023-03-07T01:26:24;7.00;99.90
25112;DHT22;13092;51.996;4.458;2023-03-07T01:28:54;6.90;99.90
25112;DHT22;13092;51.996;4.458;2023-03-07T01:31:23;6.90;99.90
25112;DHT22;13092;51.996;4.458;2023-03-07T01:33:54;6.90;99.90
25112;DHT22;13092;51.996;4.458;2023-03-07T01:36:25;6.90;99.90
25112;DHT22;13092;51.996;4.458;2023-03-07T01:38:57;6.90;99.90
25112;DHT22;13092;51.996;4.458;2023-03-07T01:41:26;6.90;99.90
25112;DHT22;13092;51.996;4.458;2023-03-07T01:43:58;6.90;99.90
25112;DHT22;13092;51.996;4.458;2023-03-07T01:46:46;6.90;99.90
25112;DHT22;13092;51.996;4.458;2023-03-07T01:49:17;6.90;99.90
25112;DHT22;13092;51.996;4.458;2023-03-07T01:51:51;6.90;99.90
25112;DHT22;13092;51.996;4.458;2023-03-07T01:54:21;7.10;99.90
25112;DHT22;13092;51.996;4.458;2023-03-07T01:56:51;6.90;99.90
25112;DHT22;13092;51.996;4.458;2023-03-07T01:59:25;7.00;99.90
25112;DHT22;13092;51.996;4.458;2023-03-07T02:01:56;6.90;99.90
25112;DHT22;13092;51.996;4.458;2023-03-07T02:04:30;6.90;99.90
25112;DHT22;13092;51.996;4.458;2023-03-07T02:07:02;6.90;99.90
25112;DHT22;13092;51.996;4.458;2023-03-07T02:09:30;7.00;99.90
25112;DHT22;13092;51.996;4.458;2023-03-07T02:12:00;6.90;99.90
25112;DHT22;13092;51.996;4.458;2023-03-07T02:14:29;6.90;99.90
25112;DHT22;13092;51.996;4.458;2023-03-07T02:16:58;6.80;99.90
25112;DHT22;13092;51.996;4.458;2023-03-07T02:19:44;6.80;99.90
25112;DHT22;13092;51.996;4.458;2023-03-07T02:22:17;6.80;99.90
25112;DHT22;13092;51.996;4.458;2023-03-07T02:24:50;6.80;99.90
25112;DHT22;13092;51.996;4.458;2023-03-07T02:27:22;6.70;99.90
25112;DHT22;13092;51.996;4.458;2023-03-07T02:29:51;6.70;99.90
25112;DHT22;13092;51.996;4.458;2023-03-07T02:32:20;6.70;99.90
25112;DHT22;13092;51.996;4.458;2023-03-07T02:34:48;6.70;99.90
25112;DHT22;13092;51.996;4.458;2023-03-07T02:37:19;6.80;99.90
25112;DHT22;13092;51.996;4.458;2023-03-07T02:39:48;6.70;99.90
25112;DHT22;13092;51.996;4.458;2023-03-07T02:42:22;6.90;99.90
25112;DHT22;13092;51.996;4.458;2023-03-07T02:44:56;6.80;99.90
25112;DHT22;13092;51.996;4.458;2023-03-07T02:47:26;6.70;99.90
25112;DHT22;13092;51.996;4.458;2023-03-07T02:49:54;6.70;99.90
25112;DHT22;13092;51.996;4.458;2023-03-07T02:52:23;6.70;99.90
25112;DHT22;13092;51.996;4.458;2023-03-07T02:54:54;6.70;99.90
25112;DHT22;13092;51.996;4.458;2023-03-07T02:57:23;6.70;99.90
25112;DHT22;13092;51.996;4.458;2023-03-07T02:59:51;6.70;99.90
25112;DHT22;13092;51.996;4.458;2023-03-07T03:02:20;6.70;99.90
25112;DHT22;13092;51.996;4.458;2023-03-07T03:04:49;6.50;99.90
25112;DHT22;13092;51.996;4.458;2023-03-07T03:07:17;6.70;99.90
25112;DHT22;13092;51.996;4.458;2023-03-07T03:09:45;6.70;99.90
25112;DHT22;13092;51.996;4.458;2023-03-07T03:12:13;6.60;99.90
25112;DHT22;13092;51.996;4.458;2023-03-07T03:14:45;6.70;99.90
25112;DHT22;13092;51.996;4.458;2023-03-07T03:17:15;6.70;99.90
25112;DHT22;13092;51.996;4.458;2023-03-07T03:19:44;6.70;99.90
25112;DHT22;13092;51.996;4.458;2023-03-07T03:22:12;6.60;99.90
25112;DHT22;13092;51.996;4.458;2023-03-07T03:24:41;6.70;99.90
25112;DHT22;13092;51.996;4.458;2023-03-07T03:27:10;6.70;99.90
25112;DHT22;13092;51.996;4.458;2023-03-07T03:29:38;6.70;99.90
25112;DHT22;13092;51.996;4.458;2023-03-07T03:32:09;6.70;99.90
25112;DHT22;13092;51.996;4.458;2023-03-07T03:34:37;6.60;99.90
25112;DHT22;13092;51.996;4.458;2023-03-07T03:37:06;6.60;99.90
25112;DHT22;13092;51.996;4.458;2023-03-07T03:39:34;6.70;99.90
25112;DHT22;13092;51.996;4.458;2023-03-07T03:42:03;6.60;99.90
25112;DHT22;13092;51.996;4.458;2023-03-07T03:44:32;6.60;99.90
25112;DHT22;13092;51.996;4.458;2023-03-07T03:47:02;6.60;99.90
25112;DHT22;13092;51.996;4.458;2023-03-07T03:49:32;6.60;99.90
25112;DHT22;13092;51.996;4.458;2023-03-07T03:52:01;6.50;99.90
25112;DHT22;13092;51.996;4.458;2023-03-07T03:54:30;6.60;99.90
25112;DHT22;13092;51.996;4.458;2023-03-07T03:56:58;6.60;99.90
25112;DHT22;13092;51.996;4.458;2023-03-07T03:59:27;6.50;99.90
25112;DHT22;13092;51.996;4.458;2023-03-07T04:01:55;6.40;99.90
25112;DHT22;13092;51.996;4.458;2023-03-07T04:04:24;6.60;99.90
25112;DHT22;13092;51.996;4.458;2023-03-07T04:06:54;6.30;99.90
25112;DHT22;13092;51.996;4.458;2023-03-07T04:09:22;6.30;99.90
25112;DHT22;13092;51.996;4.458;2023-03-07T04:11:50;6.10;99.90
25112;DHT22;13092;51.996;4.458;2023-03-07T04:14:19;6.10;99.90
25112;DHT22;13092;51.996;4.458;2023-03-07T04:16:47;6.10;99.90
25112;DHT22;13092;51.996;4.458;2023-03-07T04:19:19;6.00;99.90
25112;DHT22;13092;51.996;4.458;2023-03-07T04:21:47;6.10;99.90
25112;DHT22;13092;51.996;4.458;2023-03-07T04:24:17;6.00;99.90
25112;DHT22;13092;51.996;4.458;2023-03-07T04:26:46;6.00;99.90
25112;DHT22;13092;51.996;4.458;2023-03-07T04:29:14;5.90;99.90
25112;DHT22;13092;51.996;4.458;2023-03-07T04:31:42;5.90;99.90
25112;DHT22;13092;51.996;4.458;2023-03-07T04:34:10;6.10;99.90
25112;DHT22;13092;51.996;4.458;2023-03-07T04:36:39;6.00;99.90
25112;DHT22;13092;51.996;4.458;2023-03-07T04:39:08;6.00;99.90
25112;DHT22;13092;51.996;4.458;2023-03-07T04:41:38;6.10;99.90
25112;DHT22;13092;51.996;4.458;2023-03-07T04:44:06;6.10;99.90
25112;DHT22;13092;51.996;4.458;2023-03-07T04:46:34;6.20;99.90
25112;DHT22;13092;51.996;4.458;2023-03-07T04:49:02;6.20;99.90
25112;DHT22;13092;51.996;4.458;2023-03-07T04:51:31;6.10;99.90
25112;DHT22;13092;51.996;4.458;2023-03-07T04:53:59;6.10;99.90
25112;DHT22;13092;51.996;4.458;2023-03-07T04:56:27;5.90;99.90
25112;DHT22;13092;51.996;4.458;2023-03-07T04:58:58;6.00;99.90
25112;DHT22;13092;51.996;4.458;2023-03-07T05:01:26;5.90;99.90
25112;DHT22;13092;51.996;4.458;2023-03-07T05:03:54;5.80;99.90
25112;DHT22;13092;51.996;4.458;2023-03-07T05:06:22;5.70;99.90
25112;DHT22;13092;51.996;4.458;2023-03-07T05:08:51;5.70;99.90
25112;DHT22;13092;51.996;4.458;2023-03-07T05:11:19;5.70;99.90
25112;DHT22;13092;51.996;4.458;2023-03-07T05:13:47;5.80;99.90
25112;DHT22;13092;51.996;4.458;2023-03-07T05:16:17;5.70;99.90
25112;DHT22;13092;51.996;4.458;2023-03-07T05:18:45;5.70;99.90
25112;DHT22;13092;51.996;4.458;2023-03-07T05:21:14;5.70;99.90
25112;DHT22;13092;51.996;4.458;2023-03-07T05:23:42;5.60;99.90
25112;DHT22;13092;51.996;4.458;2023-03-07T05:26:10;5.60;99.90
25112;DHT22;13092;51.996;4.458;2023-03-07T05:28:38;5.40;99.90
25112;DHT22;13092;51.996;4.458;2023-03-07T05:31:08;5.30;99.90
25112;DHT22;13092;51.996;4.458;2023-03-07T05:33:38;5.20;99.90
25112;DHT22;13092;51.996;4.458;2023-03-07T05:36:10;5.20;99.90
25112;DHT22;13092;51.996;4.458;2023-03-07T05:38:39;5.20;99.90
25112;DHT22;13092;51.996;4.458;2023-03-07T05:41:07;5.20;99.90
25112;DHT22;13092;51.996;4.458;2023-03-07T05:43:36;5.00;99.90
25112;DHT22;13092;51.996;4.458;2023-03-07T05:46:06;5.00;99.90
25112;DHT22;13092;51.996;4.458;2023-03-07T05:48:35;4.90;99.90
25112;DHT22;13092;51.996;4.458;2023-03-07T05:51:05;4.80;99.90
25112;DHT22;13092;51.996;4.458;2023-03-07T05:53:33;4.70;99.90
25112;DHT22;13092;51.996;4.458;2023-03-07T05:56:02;4.60;99.90
25112;DHT22;13092;51.996;4.458;2023-03-07T05:58:31;4.60;99.90
25112;DHT22;13092;51.996;4.458;2023-03-07T06:01:01;4.50;99.90
25112;DHT22;13092;51.996;4.458;2023-03-07T06:03:30;4.50;99.90
25112;DHT22;13092;51.996;4.458;2023-03-07T06:05:58;4.50;99.90
25112;DHT22;13092;51.996;4.458;2023-03-07T06:08:28;4.50;99.90
25112;DHT22;13092;51.996;4.458;2023-03-07T06:10:56;4.40;99.90
25112;DHT22;13092;51.996;4.458;2023-03-07T06:13:25;4.40;99.90
25112;DHT22;13092;51.996;4.458;2023-03-07T06:15:54;4.40;99.90
25112;DHT22;13092;51.996;4.458;2023-03-07T06:18:23;4.30;99.90
25112;DHT22;13092;51.996;4.458;2023-03-07T06:20:55;4.30;99.90
25112;DHT22;13092;51.996;4.458;2023-03-07T06:23:24;4.30;99.90
25112;DHT22;13092;51.996;4.458;2023-03-07T06:25:55;4.30;99.90
25112;DHT22;13092;51.996;4.458;2023-03-07T06:28:24;4.40;99.90
25112;DHT22;13092;51.996;4.458;2023-03-07T06:30:52;4.20;99.90
25112;DHT22;13092;51.996;4.458;2023-03-07T06:33:20;4.20;99.90
25112;DHT22;13092;51.996;4.458;2023-03-07T06:35:48;4.10;99.90
25112;DHT22;13092;51.996;4.458;2023-03-07T06:38:17;4.30;99.90
25112;DHT22;13092;51.996;4.458;2023-03-07T06:40:55;4.20;99.90
25112;DHT22;13092;51.996;4.458;2023-03-07T06:43:23;4.20;99.90
25112;DHT22;13092;51.996;4.458;2023-03-07T06:45:55;4.20;99.90
25112;DHT22;13092;51.996;4.458;2023-03-07T06:48:24;4.40;99.90
25112;DHT22;13092;51.996;4.458;2023-03-07T06:50:55;4.30;99.90
25112;DHT22;13092;51.996;4.458;2023-03-07T06:53:24;4.40;99.90
25112;DHT22;13092;51.996;4.458;2023-03-07T06:55:52;4.40;99.90
25112;DHT22;13092;51.996;4.458;2023-03-07T06:58:22;4.30;99.90
25112;DHT22;13092;51.996;4.458;2023-03-07T07:00:54;4.30;99.90
25112;DHT22;13092;51.996;4.458;2023-03-07T07:03:22;4.30;99.90
25112;DHT22;13092;51.996;4.458;2023-03-07T07:05:50;4.30;99.90
25112;DHT22;13092;51.996;4.458;2023-03-07T07:08:19;4.30;99.90
25112;DHT22;13092;51.996;4.458;2023-03-07T07:10:47;4.30;99.90
25112;DHT22;13092;51.996;4.458;2023-03-07T07:13:15;4.30;99.90
25112;DHT22;13092;51.996;4.458;2023-03-07T07:15:45;4.40;99.90
25112;DHT22;13092;51.996;4.458;2023-03-07T07:18:13;4.40;99.90
25112;DHT22;13092;51.996;4.458;2023-03-07T07:20:43;4.20;99.90
25112;DHT22;13092;51.996;4.458;2023-03-07T07:23:11;4.30;99.90
25112;DHT22;13092;51.996;4.458;2023-03-07T07:25:39;4.20;99.90
25112;DHT22;13092;51.996;4.458;2023-03-07T07:28:07;4.20;99.90
25112;DHT22;13092;51.996;4.458;2023-03-07T07:30:36;4.30;99.90
25112;DHT22;13092;51.996;4.458;2023-03-07T07:33:06;4.30;99.90
25112;DHT22;13092;51.996;4.458;2023-03-07T07:35:34;4.30;99.90
25112;DHT22;13092;51.996;4.458;2023-03-07T07:38:04;4.40;99.90
25112;DHT22;13092;51.996;4.458;2023-03-07T07:40:33;4.40;99.90
25112;DHT22;13092;51.996;4.458;2023-03-07T07:43:01;4.30;99.90
25112;DHT22;13092;51.996;4.458;2023-03-07T07:45:29;4.30;99.90
25112;DHT22;13092;51.996;4.458;2023-03-07T07:47:57;4.20;99.90
25112;DHT22;13092;51.996;4.458;2023-03-07T07:50:27;4.20;99.90
25112;DHT22;13092;51.996;4.458;2023-03-07T07:52:55;4.10;99.90
25112;DHT22;13092;51.996;4.458;2023-03-07T07:55:24;4.10;99.90
25112;DHT22;13092;51.996;4.458;2023-03-07T07:57:54;4.20;99.90
25112;DHT22;13092;51.996;4.458;2023-03-07T08:00:22;4.20;99.90
25112;DHT22;13092;51.996;4.458;2023-03-07T08:02:51;4.20;99.90
25112;DHT22;13092;51.996;4.458;2023-03-07T08:05:20;4.20;99.90
25112;DHT22;13092;51.996;4.458;2023-03-07T08:07:50;4.20;99.90
25112;DHT22;13092;51.996;4.458;2023-03-07T08:10:19;4.30;99.90
25112;DHT22;13092;51.996;4.458;2023-03-07T08:12:48;4.30;99.90
25112;DHT22;13092;51.996;4.458;2023-03-07T08:15:18;4.40;99.90
25112;DHT22;13092;51.996;4.458;2023-03-07T08:17:49;4.40;99.90
25112;DHT22;13092;51.996;4.458;2023-03-07T08:20:18;4.50;99.90
25112;DHT22;13092;51.996;4.458;2023-03-07T08:22:50;4.50;99.90
25112;DHT22;13092;51.996;4.458;2023-03-07T08:25:21;4.60;99.90
25112;DHT22;13092;51.996;4.458;2023-03-07T08:27:49;4.60;99.90
25112;DHT22;13092;51.996;4.458;2023-03-07T08:30:21;4.50;99.90
25112;DHT22;13092;51.996;4.458;2023-03-07T08:32:51;4.60;99.90
25112;DHT22;13092;51.996;4.458;2023-03-07T08:35:19;4.60;99.90
25112;DHT22;13092;51.996;4.458;2023-03-07T08:37:48;4.60;99.90
25112;DHT22;13092;51.996;4.458;2023-03-07T08:40:20;4.70;99.90
25112;DHT22;13092;51.996;4.458;2023-03-07T08:42:48;4.70;99.90
25112;DHT22;13092;51.996;4.458;2023-03-07T08:45:16;4.90;99.90
25112;DHT22;13092;51.996;4.458;2023-03-07T08:47:45;4.80;99.90
25112;DHT22;13092;51.996;4.458;2023-03-07T08:50:13;4.80;99.90
25112;DHT22;13092;51.996;4.458;2023-03-07T08:52:42;4.80;99.90
25112;DHT22;13092;51.996;4.458;2023-03-07T08:55:10;4.80;99.90
25112;DHT22;13092;51.996;4.458;2023-03-07T08:57:40;4.70;99.90
25112;DHT22;13092;51.996;4.458;2023-03-07T09:00:09;4.80;99.90
25112;DHT22;13092;51.996;4.458;2023-03-07T09:02:38;4.80;99.90
25112;DHT22;13092;51.996;4.458;2023-03-07T09:05:07;4.80;99.90
25112;DHT22;13092;51.996;4.458;2023-03-07T09:07:36;4.90;99.90
25112;DHT22;13092;51.996;4.458;2023-03-07T09:10:05;4.80;99.90
25112;DHT22;13092;51.996;4.458;2023-03-07T09:22:24;5.00;99.90
25112;DHT22;13092;51.996;4.458;2023-03-07T09:25:46;5.00;99.90
25112;DHT22;13092;51.996;4.458;2023-03-07T09:28:14;5.10;99.90
25112;DHT22;13092;51.996;4.458;2023-03-07T09:32:08;5.00;99.90
25112;DHT22;13092;51.996;4.458;2023-03-07T09:34:11;5.10;99.90
25112;DHT22;13092;51.996;4.458;2023-03-07T09:39:43;5.10;99.90
25112;DHT22;13092;51.996;4.458;2023-03-07T09:42:24;5.10;99.90
25112;DHT22;13092;51.996;4.458;2023-03-07T09:45:25;5.10;99.90
25112;DHT22;13092;51.996;4.458;2023-03-07T09:51:25;5.20;99.90
25112;DHT22;13092;51.996;4.458;2023-03-07T09:53:56;5.20;99.90
25112;DHT22;13092;51.996;4.458;2023-03-07T09:56:42;5.20;99.90
25112;DHT22;13092;51.996;4.458;2023-03-07T09:59:54;5.30;99.90
25112;DHT22;13092;51.996;4.458;2023-03-07T10:02:31;5.40;99.90
25112;DHT22;13092;51.996;4.458;2023-03-07T10:05:12;5.60;99.90
25112;DHT22;13092;51.996;4.458;2023-03-07T10:08:00;5.40;99.90
25112;DHT22;13092;51.996;4.458;2023-03-07T10:10:52;5.40;99.90
25112;DHT22;13092;51.996;4.458;2023-03-07T10:13:33;5.40;99.90
25112;DHT22;13092;51.996;4.458;2023-03-07T10:17:11;5.30;99.90
25112;DHT22;13092;51.996;4.458;2023-03-07T10:27:37;5.20;99.90
25112;DHT22;13092;51.996;4.458;2023-03-07T10:34:48;5.10;99.90
25112;DHT22;13092;51.996;4.458;2023-03-07T10:45:01;4.90;99.90
25112;DHT22;13092;51.996;4.458;2023-03-07T10:47:30;4.90;99.90
25112;DHT22;13092;51.996;4.458;2023-03-07T10:50:18;5.00;99.90
25112;DHT22;13092;51.996;4.458;2023-03-07T10:52:54;4.90;99.90
25112;DHT22;13092;51.996;4.458;2023-03-07T10:55:40;5.00;99.90
25112;DHT22;13092;51.996;4.458;2023-03-07T10:58:22;5.10;99.90
25112;DHT22;13092;51.996;4.458;2023-03-07T11:01:01;5.10;99.90
25112;DHT22;13092;51.996;4.458;2023-03-07T11:03:37;5.10;99.90
25112;DHT22;13092;51.996;4.458;2023-03-07T11:06:31;5.20;99.90
25112;DHT22;13092;51.996;4.458;2023-03-07T11:09:15;5.30;99.90
25112;DHT22;13092;51.996;4.458;2023-03-07T11:11:48;5.30;99.90
25112;DHT22;13092;51.996;4.458;2023-03-07T11:14:17;5.40;99.90
25112;DHT22;13092;51.996;4.458;2023-03-07T11:16:51;5.50;99.90
25112;DHT22;13092;51.996;4.458;2023-03-07T11:19:35;5.30;99.90
25112;DHT22;13092;51.996;4.458;2023-03-07T11:22:16;5.40;99.90
25112;DHT22;13092;51.996;4.458;2023-03-07T11:24:55;5.30;99.90
25112;DHT22;13092;51.996;4.458;2023-03-07T11:27:34;5.30;99.90
25112;DHT22;13092;51.996;4.458;2023-03-07T11:33:12;5.30;99.90
25112;DHT22;13092;51.996;4.458;2023-03-07T11:35:52;5.20;99.90
25112;DHT22;13092;51.996;4.458;2023-03-07T11:38:30;5.30;99.90
25112;DHT22;13092;51.996;4.458;2023-03-07T11:41:07;5.30;99.90
25112;DHT22;13092;51.996;4.458;2023-03-07T11:43:50;5.20;99.90
25112;DHT22;13092;51.996;4.458;2023-03-07T11:46:26;5.20;99.90
25112;DHT22;13092;51.996;4.458;2023-03-07T11:49:12;5.20;99.90
25112;DHT22;13092;51.996;4.458;2023-03-07T11:51:55;5.20;99.90
25112;DHT22;13092;51.996;4.458;2023-03-07T11:54:31;5.20;99.90
25112;DHT22;13092;51.996;4.458;2023-03-07T11:57:13;5.10;99.90
25112;DHT22;13092;51.996;4.458;2023-03-07T12:02:57;4.90;99.90
25112;DHT22;13092;51.996;4.458;2023-03-07T12:05:51;4.60;99.90
25112;DHT22;13092;51.996;4.458;2023-03-07T12:08:31;4.60;99.90
25112;DHT22;13092;51.996;4.458;2023-03-07T12:11:11;4.50;99.90
25112;DHT22;13092;51.996;4.458;2023-03-07T12:13:53;4.40;99.90
25112;DHT22;13092;51.996;4.458;2023-03-07T12:16:26;4.30;99.90
25112;DHT22;13092;51.996;4.458;2023-03-07T12:19:16;4.30;99.90
25112;DHT22;13092;51.996;4.458;2023-03-07T12:22:21;4.30;99.90
25112;DHT22;13092;51.996;4.458;2023-03-07T12:25:12;4.30;99.90
25112;DHT22;13092;51.996;4.458;2023-03-07T12:27:52;4.30;99.90
25112;DHT22;13092;51.996;4.458;2023-03-07T12:30:32;4.30;99.90
25112;DHT22;13092;51.996;4.458;2023-03-07T12:33:03;4.30;99.90
25112;DHT22;13092;51.996;4.458;2023-03-07T12:35:41;4.30;99.90
25112;DHT22;13092;51.996;4.458;2023-03-07T12:38:28;4.20;99.90
25112;DHT22;13092;51.996;4.458;2023-03-07T12:41:08;4.20;99.90
25112;DHT22;13092;51.996;4.458;2023-03-07T12:43:42;4.40;99.90
25112;DHT22;13092;51.996;4.458;2023-03-07T12:46:16;4.20;99.90
25112;DHT22;13092;51.996;4.458;2023-03-07T12:48:52;4.10;99.90
25112;DHT22;13092;51.996;4.458;2023-03-07T12:51:25;4.30;99.90
25112;DHT22;13092;51.996;4.458;2023-03-07T12:54:07;4.30;99.90
25112;DHT22;13092;51.996;4.458;2023-03-07T12:56:45;4.20;99.90
25112;DHT22;13092;51.996;4.458;2023-03-07T12:59:14;4.30;99.90
25112;DHT22;13092;51.996;4.458;2023-03-07T13:01:46;4.30;99.90
25112;DHT22;13092;51.996;4.458;2023-03-07T13:04:17;4.40;99.90
25112;DHT22;13092;51.996;4.458;2023-03-07T13:06:47;4.50;99.90
25112;DHT22;13092;51.996;4.458;2023-03-07T13:09:20;4.60;99.90
25112;DHT22;13092;51.996;4.458;2023-03-07T13:12:30;4.70;99.90
25112;DHT22;13092;51.996;4.458;2023-03-07T13:15:03;4.70;99.90
25112;DHT22;13092;51.996;4.458;2023-03-07T13:17:59;4.80;99.90
25112;DHT22;13092;51.996;4.458;2023-03-07T13:20:37;4.80;99.90
25112;DHT22;13092;51.996;4.458;2023-03-07T13:23:21;4.80;99.90
25112;DHT22;13092;51.996;4.458;2023-03-07T13:26:17;4.80;99.90
25112;DHT22;13092;51.996;4.458;2023-03-07T13:28:51;4.70;99.90
25112;DHT22;13092;51.996;4.458;2023-03-07T13:34:42;4.50;99.90
25112;DHT22;13092;51.996;4.458;2023-03-07T13:37:56;4.40;99.90
25112;DHT22;13092;51.996;4.458;2023-03-07T13:44:00;4.20;99.90
25112;DHT22;13092;51.996;4.458;2023-03-07T13:46:45;4.20;99.90
25112;DHT22;13092;51.996;4.458;2023-03-07T13:49:33;4.30;99.90
25112;DHT22;13092;51.996;4.458;2023-03-07T13:52:30;4.30;99.90
25112;DHT22;13092;51.996;4.458;2023-03-07T13:55:02;4.40;99.90
25112;DHT22;13092;51.996;4.458;2023-03-07T13:57:37;4.40;99.90
25112;DHT22;13092;51.996;4.458;2023-03-07T14:00:29;4.50;99.90
25112;DHT22;13092;51.996;4.458;2023-03-07T14:02:59;4.50;99.90
25112;DHT22;13092;51.996;4.458;2023-03-07T14:05:31;4.40;99.90
25112;DHT22;13092;51.996;4.458;2023-03-07T14:08:01;4.60;99.90
25112;DHT22;13092;51.996;4.458;2023-03-07T14:10:30;4.60;99.90
25112;DHT22;13092;51.996;4.458;2023-03-07T14:16:17;4.70;99.90
25112;DHT22;13092;51.996;4.458;2023-03-07T14:18:59;4.70;99.90
25112;DHT22;13092;51.996;4.458;2023-03-07T14:21:47;4.80;99.90
25112;DHT22;13092;51.996;4.458;2023-03-07T14:24:49;4.90;99.90
25112;DHT22;13092;51.996;4.458;2023-03-07T14:27:19;5.00;99.90
25112;DHT22;13092;51.996;4.458;2023-03-07T14:29:49;5.00;99.90
25112;DHT22;13092;51.996;4.458;2023-03-07T14:32:25;5.00;99.90
25112;DHT22;13092;51.996;4.458;2023-03-07T14:34:57;5.00;99.90
25112;DHT22;13092;51.996;4.458;2023-03-07T14:37:30;5.00;99.90
25112;DHT22;13092;51.996;4.458;2023-03-07T14:43:12;5.00;99.90
25112;DHT22;13092;51.996;4.458;2023-03-07T14:45:47;4.90;99.90
25112;DHT22;13092;51.996;4.458;2023-03-07T14:48:36;5.00;99.90
25112;DHT22;13092;51.996;4.458;2023-03-07T14:51:11;5.10;99.90
25112;DHT22;13092;51.996;4.458;2023-03-07T14:53:40;5.10;99.90
25112;DHT22;13092;51.996;4.458;2023-03-07T14:56:18;5.10;99.90
25112;DHT22;13092;51.996;4.458;2023-03-07T14:58:53;5.10;99.90
25112;DHT22;13092;51.996;4.458;2023-03-07T15:01:22;5.10;99.90
25112;DHT22;13092;51.996;4.458;2023-03-07T15:03:52;5.10;99.90
25112;DHT22;13092;51.996;4.458;2023-03-07T15:06:23;5.10;99.90
25112;DHT22;13092;51.996;4.458;2023-03-07T15:08:55;5.00;99.90
25112;DHT22;13092;51.996;4.458;2023-03-07T15:11:29;5.10;99.90
25112;DHT22;13092;51.996;4.458;2023-03-07T15:14:01;5.10;99.90
25112;DHT22;13092;51.996;4.458;2023-03-07T15:16:35;5.10;99.90
25112;DHT22;13092;51.996;4.458;2023-03-07T15:19:11;5.20;99.90
25112;DHT22;13092;51.996;4.458;2023-03-07T15:21:45;5.20;99.90
25112;DHT22;13092;51.996;4.458;2023-03-07T15:24:18;5.30;99.90
25112;DHT22;13092;51.996;4.458;2023-03-07T15:26:51;5.30;99.90
25112;DHT22;13092;51.996;4.458;2023-03-07T15:29:23;5.30;99.90
25112;DHT22;13092;51.996;4.458;2023-03-07T15:31:55;5.30;99.90
25112;DHT22;13092;51.996;4.458;2023-03-07T15:34:27;5.40;99.90
25112;DHT22;13092;51.996;4.458;2023-03-07T15:37:20;5.30;99.90
25112;DHT22;13092;51.996;4.458;2023-03-07T15:39:56;5.40;99.90
25112;DHT22;13092;51.996;4.458;2023-03-07T15:42:25;5.30;99.90
25112;DHT22;13092;51.996;4.458;2023-03-07T15:44:57;5.30;99.90
25112;DHT22;13092;51.996;4.458;2023-03-07T15:47:33;5.30;99.90
25112;DHT22;13092;51.996;4.458;2023-03-07T15:50:05;5.30;99.90
25112;DHT22;13092;51.996;4.458;2023-03-07T15:52:35;5.30;99.90
25112;DHT22;13092;51.996;4.458;2023-03-07T15:55:06;5.30;99.90
25112;DHT22;13092;51.996;4.458;2023-03-07T15:57:49;5.30;99.90
25112;DHT22;13092;51.996;4.458;2023-03-07T16:00:20;5.30;99.90
25112;DHT22;13092;51.996;4.458;2023-03-07T16:03:10;5.30;99.90
25112;DHT22;13092;51.996;4.458;2023-03-07T16:05:43;5.30;99.90
25112;DHT22;13092;51.996;4.458;2023-03-07T16:08:13;5.30;99.90
25112;DHT22;13092;51.996;4.458;2023-03-07T16:10:49;5.30;99.90
25112;DHT22;13092;51.996;4.458;2023-03-07T16:13:21;5.40;99.90
25112;DHT22;13092;51.996;4.458;2023-03-07T16:16:00;5.20;99.90
25112;DHT22;13092;51.996;4.458;2023-03-07T16:18:32;5.20;99.90
25112;DHT22;13092;51.996;4.458;2023-03-07T16:21:03;5.20;99.90
25112;DHT22;13092;51.996;4.458;2023-03-07T16:23:31;5.20;99.90
25112;DHT22;13092;51.996;4.458;2023-03-07T16:26:02;5.30;99.90
25112;DHT22;13092;51.996;4.458;2023-03-07T16:28:32;5.30;99.90
25112;DHT22;13092;51.996;4.458;2023-03-07T16:31:00;5.30;99.90
25112;DHT22;13092;51.996;4.458;2023-03-07T16:33:28;5.30;99.90
25112;DHT22;13092;51.996;4.458;2023-03-07T16:35:56;5.30;99.90
25112;DHT22;13092;51.996;4.458;2023-03-07T16:38:26;5.30;99.90
25112;DHT22;13092;51.996;4.458;2023-03-07T16:40:54;5.30;99.90
25112;DHT22;13092;51.996;4.458;2023-03-07T16:43:41;5.30;99.90
25112;DHT22;13092;51.996;4.458;2023-03-07T16:46:13;5.40;99.90
25112;DHT22;13092;51.996;4.458;2023-03-07T16:48:42;5.40;99.90
25112;DHT22;13092;51.996;4.458;2023-03-07T16:51:13;5.30;99.90
25112;DHT22;13092;51.996;4.458;2023-03-07T16:53:45;5.30;99.90
25112;DHT22;13092;51.996;4.458;2023-03-07T16:56:20;5.30;99.90
25112;DHT22;13092;51.996;4.458;2023-03-07T16:58:50;5.30;99.90
25112;DHT22;13092;51.996;4.458;2023-03-07T17:01:19;5.30;99.90
25112;DHT22;13092;51.996;4.458;2023-03-07T17:03:47;5.20;99.90
25112;DHT22;13092;51.996;4.458;2023-03-07T17:06:16;5.20;99.90
25112;DHT22;13092;51.996;4.458;2023-03-07T17:09:00;5.20;99.90
25112;DHT22;13092;51.996;4.458;2023-03-07T17:11:28;5.20;99.90
25112;DHT22;13092;51.996;4.458;2023-03-07T17:13:58;5.30;99.90
25112;DHT22;13092;51.996;4.458;2023-03-07T17:16:27;5.20;99.90
25112;DHT22;13092;51.996;4.458;2023-03-07T17:18:57;5.20;99.90